sensor_id;sensor_type;location;lat;lon;timestamp;P1;durP1;ratioP1;P2;durP2;ratioP2
18425;SDS011;9340;48.756;9.226;2024-03-22T00:00:36;20.00;;;17.77;;
18425;SDS011;9340;48.756;9.226;2024-03-22T00:03:02;19.07;;;16.90;;
18425;SDS011;9340;48.756;9.226;2024-03-22T00:05:29;20.47;;;18.33;;
18425;SDS011;9340;48.756;9.226;2024-03-22T00:07:54;21.80;;;19.77;;
18425;SDS011;9340;48.756;9.226;2024-03-22T00:10:21;20.27;;;18.17;;
18425;SDS011;9340;48.756;9.226;2024-03-22T00:12:47;21.53;;;19.30;;
18425;SDS011;9340;48.756;9.226;2024-03-22T00:15:16;20.37;;;18.37;;
18425;SDS011;9340;48.756;9.226;2024-03-22T00:17:42;19.93;;;17.87;;
18425;SDS011;9340;48.756;9.226;2024-03-22T00:20:09;19.47;;;17.57;;
18425;SDS011;9340;48.756;9.226;2024-03-22T00:22:35;20.80;;;18.67;;
18425;SDS011;9340;48.756;9.226;2024-03-22T00:25:02;20.33;;;18.20;;
18425;SDS011;9340;48.756;9.226;2024-03-22T00:27:28;20.03;;;18.13;;
18425;SDS011;9340;48.756;9.226;2024-03-22T00:29:55;19.93;;;17.73;;
18425;SDS011;9340;48.756;9.226;2024-03-22T00:32:22;21.23;;;18.50;;
18425;SDS011;9340;48.756;9.226;2024-03-22T00:34:48;20.63;;;18.63;;
18425;SDS011;9340;48.756;9.226;2024-03-22T00:37:14;22.63;;;19.90;;
18425;SDS011;9340;48.756;9.226;2024-03-22T00:39:41;21.90;;;19.63;;
18425;SDS011;9340;48.756;9.226;2024-03-22T00:42:07;19.73;;;17.67;;
18425;SDS011;9340;48.756;9.226;2024-03-22T00:44:33;19.73;;;17.63;;
18425;SDS011;9340;48.756;9.226;2024-03-22T00:46:59;21.90;;;19.73;;
18425;SDS011;9340;48.756;9.226;2024-03-22T00:49:29;19.00;;;17.10;;
18425;SDS011;9340;48.756;9.226;2024-03-22T00:51:55;19.80;;;17.77;;
18425;SDS011;9340;48.756;9.226;2024-03-22T00:54:22;22.60;;;20.27;;
18425;SDS011;9340;48.756;9.226;2024-03-22T00:56:47;28.77;;;23.90;;
18425;SDS011;9340;48.756;9.226;2024-03-22T00:59:14;22.57;;;20.20;;
18425;SDS011;9340;48.756;9.226;2024-03-22T01:01:40;21.87;;;19.57;;
18425;SDS011;9340;48.756;9.226;2024-03-22T01:04:06;18.63;;;16.60;;
18425;SDS011;9340;48.756;9.226;2024-03-22T01:06:35;20.50;;;18.33;;
18425;SDS011;9340;48.756;9.226;2024-03-22T01:09:01;19.10;;;17.10;;
18425;SDS011;9340;48.756;9.226;2024-03-22T01:11:28;20.67;;;17.23;;
18425;SDS011;9340;48.756;9.226;2024-03-22T01:13:55;17.90;;;16.07;;
18425;SDS011;9340;48.756;9.226;2024-03-22T01:16:20;18.20;;;16.53;;
18425;SDS011;9340;48.756;9.226;2024-03-22T01:18:48;20.23;;;18.10;;
18425;SDS011;9340;48.756;9.226;2024-03-22T01:21:14;20.90;;;18.50;;
18425;SDS011;9340;48.756;9.226;2024-03-22T01:23:42;19.57;;;17.47;;
18425;SDS011;9340;48.756;9.226;2024-03-22T01:26:07;17.90;;;16.07;;
18425;SDS011;9340;48.756;9.226;2024-03-22T01:28:34;18.30;;;16.13;;
18425;SDS011;9340;48.756;9.226;2024-03-22T01:31:00;16.87;;;15.13;;
18425;SDS011;9340;48.756;9.226;2024-03-22T01:33:27;17.57;;;15.87;;
18425;SDS011;9340;48.756;9.226;2024-03-22T01:35:52;17.90;;;16.03;;
18425;SDS011;9340;48.756;9.226;2024-03-22T01:38:19;17.17;;;14.23;;
18425;SDS011;9340;48.756;9.226;2024-03-22T01:40:46;17.83;;;16.00;;
18425;SDS011;9340;48.756;9.226;2024-03-22T01:43:13;17.90;;;16.23;;
18425;SDS011;9340;48.756;9.226;2024-03-22T01:45:38;18.47;;;16.53;;
18425;SDS011;9340;48.756;9.226;2024-03-22T01:48:05;18.20;;;16.30;;
18425;SDS011;9340;48.756;9.226;2024-03-22T01:50:32;23.10;;;20.80;;
18425;SDS011;9340;48.756;9.226;2024-03-22T01:52:59;19.80;;;17.80;;
18425;SDS011;9340;48.756;9.226;2024-03-22T01:55:25;18.93;;;16.97;;
18425;SDS011;9340;48.756;9.226;2024-03-22T01:57:55;17.03;;;15.30;;
18425;SDS011;9340;48.756;9.226;2024-03-22T02:00:21;16.53;;;14.83;;
18425;SDS011;9340;48.756;9.226;2024-03-22T02:02:47;19.60;;;17.53;;
18425;SDS011;9340;48.756;9.226;2024-03-22T02:05:13;18.47;;;16.67;;
18425;SDS011;9340;48.756;9.226;2024-03-22T02:07:41;17.37;;;15.67;;
18425;SDS011;9340;48.756;9.226;2024-03-22T02:10:07;17.37;;;15.43;;
18425;SDS011;9340;48.756;9.226;2024-03-22T02:12:35;18.57;;;16.63;;
18425;SDS011;9340;48.756;9.226;2024-03-22T02:15:03;15.03;;;13.53;;
18425;SDS011;9340;48.756;9.226;2024-03-22T02:17:31;16.73;;;15.03;;
18425;SDS011;9340;48.756;9.226;2024-03-22T02:19:57;16.37;;;14.73;;
18425;SDS011;9340;48.756;9.226;2024-03-22T02:22:24;19.03;;;17.10;;
18425;SDS011;9340;48.756;9.226;2024-03-22T02:24:52;18.20;;;16.33;;
18425;SDS011;9340;48.756;9.226;2024-03-22T02:27:19;19.73;;;17.20;;
18425;SDS011;9340;48.756;9.226;2024-03-22T02:29:45;17.03;;;14.97;;
18425;SDS011;9340;48.756;9.226;2024-03-22T02:32:11;16.27;;;14.73;;
18425;SDS011;9340;48.756;9.226;2024-03-22T02:34:37;15.67;;;14.17;;
18425;SDS011;9340;48.756;9.226;2024-03-22T02:37:04;15.80;;;13.97;;
18425;SDS011;9340;48.756;9.226;2024-03-22T02:39:30;17.77;;;15.87;;
18425;SDS011;9340;48.756;9.226;2024-03-22T02:41:58;19.80;;;17.73;;
18425;SDS011;9340;48.756;9.226;2024-03-22T02:44:23;17.50;;;15.67;;
18425;SDS011;9340;48.756;9.226;2024-03-22T02:46:50;14.80;;;13.40;;
18425;SDS011;9340;48.756;9.226;2024-03-22T02:49:16;20.43;;;18.33;;
18425;SDS011;9340;48.756;9.226;2024-03-22T02:51:42;20.03;;;16.40;;
18425;SDS011;9340;48.756;9.226;2024-03-22T02:54:08;18.47;;;16.53;;
18425;SDS011;9340;48.756;9.226;2024-03-22T02:56:35;18.03;;;16.07;;
18425;SDS011;9340;48.756;9.226;2024-03-22T02:59:02;15.17;;;13.57;;
18425;SDS011;9340;48.756;9.226;2024-03-22T03:01:28;15.57;;;14.07;;
18425;SDS011;9340;48.756;9.226;2024-03-22T03:03:54;13.67;;;12.37;;
18425;SDS011;9340;48.756;9.226;2024-03-22T03:06:21;16.83;;;14.80;;
18425;SDS011;9340;48.756;9.226;2024-03-22T03:08:47;15.17;;;13.70;;
18425;SDS011;9340;48.756;9.226;2024-03-22T03:11:13;22.53;;;18.50;;
18425;SDS011;9340;48.756;9.226;2024-03-22T03:13:39;18.60;;;16.13;;
18425;SDS011;9340;48.756;9.226;2024-03-22T03:16:08;17.60;;;15.83;;
18425;SDS011;9340;48.756;9.226;2024-03-22T03:18:33;16.67;;;15.03;;
18425;SDS011;9340;48.756;9.226;2024-03-22T03:21:00;13.20;;;11.87;;
18425;SDS011;9340;48.756;9.226;2024-03-22T03:23:26;14.37;;;12.97;;
18425;SDS011;9340;48.756;9.226;2024-03-22T03:25:52;17.50;;;15.53;;
18425;SDS011;9340;48.756;9.226;2024-03-22T03:28:18;16.60;;;14.80;;
18425;SDS011;9340;48.756;9.226;2024-03-22T03:30:46;15.97;;;14.43;;
18425;SDS011;9340;48.756;9.226;2024-03-22T03:33:13;16.13;;;14.60;;
18425;SDS011;9340;48.756;9.226;2024-03-22T03:35:39;13.63;;;12.43;;
18425;SDS011;9340;48.756;9.226;2024-03-22T03:38:05;14.50;;;13.10;;
18425;SDS011;9340;48.756;9.226;2024-03-22T03:40:32;17.37;;;15.37;;
18425;SDS011;9340;48.756;9.226;2024-03-22T03:42:57;15.00;;;12.43;;
18425;SDS011;9340;48.756;9.226;2024-03-22T03:45:24;14.47;;;12.97;;
18425;SDS011;9340;48.756;9.226;2024-03-22T03:47:50;15.80;;;14.30;;
18425;SDS011;9340;48.756;9.226;2024-03-22T03:50:18;18.17;;;15.10;;
18425;SDS011;9340;48.756;9.226;2024-03-22T03:52:43;16.30;;;14.43;;
18425;SDS011;9340;48.756;9.226;2024-03-22T03:55:10;15.20;;;13.60;;
18425;SDS011;9340;48.756;9.226;2024-03-22T03:57:36;17.00;;;15.20;;
18425;SDS011;9340;48.756;9.226;2024-03-22T04:00:03;16.07;;;14.50;;
18425;SDS011;9340;48.756;9.226;2024-03-22T04:02:29;16.93;;;15.23;;
18425;SDS011;9340;48.756;9.226;2024-03-22T04:04:56;13.93;;;12.53;;
18425;SDS011;9340;48.756;9.226;2024-03-22T04:07:23;16.00;;;14.37;;
18425;SDS011;9340;48.756;9.226;2024-03-22T04:09:50;21.33;;;17.93;;
18425;SDS011;9340;48.756;9.226;2024-03-22T04:12:16;14.60;;;13.20;;
18425;SDS011;9340;48.756;9.226;2024-03-22T04:14:42;15.57;;;14.13;;
18425;SDS011;9340;48.756;9.226;2024-03-22T04:17:08;14.77;;;13.33;;
18425;SDS011;9340;48.756;9.226;2024-03-22T04:19:35;15.90;;;14.23;;
18425;SDS011;9340;48.756;9.226;2024-03-22T04:22:00;15.20;;;13.13;;
18425;SDS011;9340;48.756;9.226;2024-03-22T04:24:29;14.17;;;12.77;;
18425;SDS011;9340;48.756;9.226;2024-03-22T04:26:54;14.37;;;12.87;;
18425;SDS011;9340;48.756;9.226;2024-03-22T04:29:21;16.20;;;14.53;;
18425;SDS011;9340;48.756;9.226;2024-03-22T04:31:47;13.50;;;12.10;;
18425;SDS011;9340;48.756;9.226;2024-03-22T04:34:14;14.63;;;13.17;;
18425;SDS011;9340;48.756;9.226;2024-03-22T04:36:39;13.20;;;12.00;;
18425;SDS011;9340;48.756;9.226;2024-03-22T04:39:06;14.93;;;13.47;;
18425;SDS011;9340;48.756;9.226;2024-03-22T04:41:36;14.90;;;13.40;;
18425;SDS011;9340;48.756;9.226;2024-03-22T04:44:02;15.30;;;13.83;;
18425;SDS011;9340;48.756;9.226;2024-03-22T04:46:29;13.70;;;12.50;;
18425;SDS011;9340;48.756;9.226;2024-03-22T04:48:55;14.53;;;13.13;;
18425;SDS011;9340;48.756;9.226;2024-03-22T04:51:22;14.30;;;12.93;;
18425;SDS011;9340;48.756;9.226;2024-03-22T04:53:47;12.30;;;10.87;;
18425;SDS011;9340;48.756;9.226;2024-03-22T04:56:14;14.13;;;12.67;;
18425;SDS011;9340;48.756;9.226;2024-03-22T04:58:41;13.83;;;12.40;;
18425;SDS011;9340;48.756;9.226;2024-03-22T05:01:08;20.30;;;18.20;;
18425;SDS011;9340;48.756;9.226;2024-03-22T05:03:33;15.07;;;13.30;;
18425;SDS011;9340;48.756;9.226;2024-03-22T05:06:00;13.43;;;12.03;;
18425;SDS011;9340;48.756;9.226;2024-03-22T05:08:28;12.80;;;11.50;;
18425;SDS011;9340;48.756;9.226;2024-03-22T05:10:55;12.93;;;11.67;;
18425;SDS011;9340;48.756;9.226;2024-03-22T05:13:20;12.67;;;11.40;;
18425;SDS011;9340;48.756;9.226;2024-03-22T05:15:48;12.50;;;11.30;;
18425;SDS011;9340;48.756;9.226;2024-03-22T05:18:14;13.70;;;12.40;;
18425;SDS011;9340;48.756;9.226;2024-03-22T05:20:41;13.00;;;11.80;;
18425;SDS011;9340;48.756;9.226;2024-03-22T05:23:07;12.67;;;11.43;;
18425;SDS011;9340;48.756;9.226;2024-03-22T05:25:33;12.20;;;11.03;;
18425;SDS011;9340;48.756;9.226;2024-03-22T05:27:59;12.57;;;11.40;;
18425;SDS011;9340;48.756;9.226;2024-03-22T05:30:26;13.13;;;11.83;;
18425;SDS011;9340;48.756;9.226;2024-03-22T05:32:53;13.20;;;11.90;;
18425;SDS011;9340;48.756;9.226;2024-03-22T05:35:19;13.30;;;11.97;;
18425;SDS011;9340;48.756;9.226;2024-03-22T05:37:45;13.07;;;11.77;;
18425;SDS011;9340;48.756;9.226;2024-03-22T05:40:13;13.90;;;12.53;;
18425;SDS011;9340;48.756;9.226;2024-03-22T05:42:39;13.93;;;12.43;;
18425;SDS011;9340;48.756;9.226;2024-03-22T05:45:05;12.10;;;10.80;;
18425;SDS011;9340;48.756;9.226;2024-03-22T05:47:32;15.33;;;13.73;;
18425;SDS011;9340;48.756;9.226;2024-03-22T05:50:00;12.77;;;11.47;;
18425;SDS011;9340;48.756;9.226;2024-03-22T05:52:26;12.63;;;11.50;;
18425;SDS011;9340;48.756;9.226;2024-03-22T05:54:54;12.10;;;10.80;;
18425;SDS011;9340;48.756;9.226;2024-03-22T05:57:20;11.60;;;10.40;;
18425;SDS011;9340;48.756;9.226;2024-03-22T05:59:47;10.93;;;9.93;;
18425;SDS011;9340;48.756;9.226;2024-03-22T06:02:14;16.40;;;14.70;;
18425;SDS011;9340;48.756;9.226;2024-03-22T06:04:41;15.83;;;13.90;;
18425;SDS011;9340;48.756;9.226;2024-03-22T06:07:08;12.97;;;11.67;;
18425;SDS011;9340;48.756;9.226;2024-03-22T06:09:35;16.40;;;13.63;;
18425;SDS011;9340;48.756;9.226;2024-03-22T06:12:02;13.90;;;12.27;;
18425;SDS011;9340;48.756;9.226;2024-03-22T06:14:30;12.10;;;10.73;;
18425;SDS011;9340;48.756;9.226;2024-03-22T06:16:55;13.10;;;11.90;;
18425;SDS011;9340;48.756;9.226;2024-03-22T06:19:22;14.70;;;13.23;;
18425;SDS011;9340;48.756;9.226;2024-03-22T06:21:48;18.43;;;15.90;;
18425;SDS011;9340;48.756;9.226;2024-03-22T06:24:16;22.57;;;20.13;;
18425;SDS011;9340;48.756;9.226;2024-03-22T06:26:42;22.27;;;20.07;;
18425;SDS011;9340;48.756;9.226;2024-03-22T06:29:08;20.60;;;18.43;;
18425;SDS011;9340;48.756;9.226;2024-03-22T06:31:34;22.03;;;19.73;;
18425;SDS011;9340;48.756;9.226;2024-03-22T06:34:01;23.27;;;20.73;;
18425;SDS011;9340;48.756;9.226;2024-03-22T06:36:27;20.97;;;18.73;;
18425;SDS011;9340;48.756;9.226;2024-03-22T06:38:54;20.90;;;18.67;;
18425;SDS011;9340;48.756;9.226;2024-03-22T06:41:22;21.07;;;18.73;;
18425;SDS011;9340;48.756;9.226;2024-03-22T06:43:48;20.67;;;18.60;;
18425;SDS011;9340;48.756;9.226;2024-03-22T06:46:14;19.50;;;17.60;;
18425;SDS011;9340;48.756;9.226;2024-03-22T06:48:41;22.43;;;20.03;;
18425;SDS011;9340;48.756;9.226;2024-03-22T06:51:07;20.10;;;18.13;;
18425;SDS011;9340;48.756;9.226;2024-03-22T06:53:33;20.37;;;18.37;;
18425;SDS011;9340;48.756;9.226;2024-03-22T06:55:59;19.77;;;17.87;;
18425;SDS011;9340;48.756;9.226;2024-03-22T06:58:27;18.67;;;16.77;;
18425;SDS011;9340;48.756;9.226;2024-03-22T07:00:53;18.93;;;17.00;;
18425;SDS011;9340;48.756;9.226;2024-03-22T07:03:20;18.90;;;16.70;;
18425;SDS011;9340;48.756;9.226;2024-03-22T07:05:46;18.50;;;16.80;;
18425;SDS011;9340;48.756;9.226;2024-03-22T07:08:13;18.33;;;16.70;;
18425;SDS011;9340;48.756;9.226;2024-03-22T07:10:39;17.53;;;15.93;;
18425;SDS011;9340;48.756;9.226;2024-03-22T07:13:05;17.63;;;15.83;;
18425;SDS011;9340;48.756;9.226;2024-03-22T07:15:33;17.90;;;16.07;;
18425;SDS011;9340;48.756;9.226;2024-03-22T07:17:59;16.83;;;15.13;;
18425;SDS011;9340;48.756;9.226;2024-03-22T07:20:25;18.10;;;16.40;;
18425;SDS011;9340;48.756;9.226;2024-03-22T07:22:52;16.73;;;15.17;;
18425;SDS011;9340;48.756;9.226;2024-03-22T07:25:18;17.33;;;15.63;;
18425;SDS011;9340;48.756;9.226;2024-03-22T07:27:44;15.83;;;14.13;;
18425;SDS011;9340;48.756;9.226;2024-03-22T07:30:11;17.13;;;15.53;;
18425;SDS011;9340;48.756;9.226;2024-03-22T07:32:39;18.10;;;16.30;;
18425;SDS011;9340;48.756;9.226;2024-03-22T07:35:05;16.57;;;15.03;;
18425;SDS011;9340;48.756;9.226;2024-03-22T07:37:32;17.47;;;15.53;;
18425;SDS011;9340;48.756;9.226;2024-03-22T07:39:59;17.03;;;15.00;;
18425;SDS011;9340;48.756;9.226;2024-03-22T07:42:26;15.43;;;13.93;;
18425;SDS011;9340;48.756;9.226;2024-03-22T07:44:51;16.77;;;14.90;;
18425;SDS011;9340;48.756;9.226;2024-03-22T07:47:18;16.33;;;14.83;;
18425;SDS011;9340;48.756;9.226;2024-03-22T07:49:45;15.67;;;14.07;;
18425;SDS011;9340;48.756;9.226;2024-03-22T07:52:11;16.30;;;14.70;;
18425;SDS011;9340;48.756;9.226;2024-03-22T07:54:37;15.70;;;14.10;;
18425;SDS011;9340;48.756;9.226;2024-03-22T07:57:04;16.37;;;14.87;;
18425;SDS011;9340;48.756;9.226;2024-03-22T07:59:30;15.73;;;14.23;;
18425;SDS011;9340;48.756;9.226;2024-03-22T08:01:56;15.73;;;14.23;;
18425;SDS011;9340;48.756;9.226;2024-03-22T08:04:22;16.43;;;14.83;;
18425;SDS011;9340;48.756;9.226;2024-03-22T08:06:51;16.33;;;14.63;;
18425;SDS011;9340;48.756;9.226;2024-03-22T08:09:17;17.03;;;14.03;;
18425;SDS011;9340;48.756;9.226;2024-03-22T08:11:45;15.33;;;13.83;;
18425;SDS011;9340;48.756;9.226;2024-03-22T08:14:10;15.60;;;14.10;;
18425;SDS011;9340;48.756;9.226;2024-03-22T08:16:37;13.80;;;12.67;;
18425;SDS011;9340;48.756;9.226;2024-03-22T08:19:03;18.70;;;13.60;;
18425;SDS011;9340;48.756;9.226;2024-03-22T08:21:29;14.17;;;12.77;;
18425;SDS011;9340;48.756;9.226;2024-03-22T08:23:57;13.47;;;12.27;;
18425;SDS011;9340;48.756;9.226;2024-03-22T08:26:23;14.57;;;13.17;;
18425;SDS011;9340;48.756;9.226;2024-03-22T08:28:49;13.57;;;12.20;;
18425;SDS011;9340;48.756;9.226;2024-03-22T08:31:16;13.80;;;11.50;;
18425;SDS011;9340;48.756;9.226;2024-03-22T08:33:42;12.13;;;10.83;;
18425;SDS011;9340;48.756;9.226;2024-03-22T08:36:09;11.27;;;10.27;;
18425;SDS011;9340;48.756;9.226;2024-03-22T08:38:34;11.23;;;10.33;;
18425;SDS011;9340;48.756;9.226;2024-03-22T08:41:03;10.00;;;9.10;;
18425;SDS011;9340;48.756;9.226;2024-03-22T08:43:29;9.87;;;8.97;;
18425;SDS011;9340;48.756;9.226;2024-03-22T08:45:56;8.43;;;7.67;;
18425;SDS011;9340;48.756;9.226;2024-03-22T08:48:22;9.13;;;8.23;;
18425;SDS011;9340;48.756;9.226;2024-03-22T08:50:49;11.90;;;9.17;;
18425;SDS011;9340;48.756;9.226;2024-03-22T08:53:15;8.00;;;7.30;;
18425;SDS011;9340;48.756;9.226;2024-03-22T08:55:45;8.13;;;7.32;;
18425;SDS011;9340;48.756;9.226;2024-03-22T08:58:14;8.13;;;7.43;;
18425;SDS011;9340;48.756;9.226;2024-03-22T09:00:42;9.52;;;7.82;;
18425;SDS011;9340;48.756;9.226;2024-03-22T09:03:08;8.20;;;7.43;;
18425;SDS011;9340;48.756;9.226;2024-03-22T09:05:35;8.43;;;7.03;;
18425;SDS011;9340;48.756;9.226;2024-03-22T09:08:01;8.77;;;6.95;;
18425;SDS011;9340;48.756;9.226;2024-03-22T09:10:29;7.93;;;7.22;;
18425;SDS011;9340;48.756;9.226;2024-03-22T09:12:55;7.65;;;6.97;;
18425;SDS011;9340;48.756;9.226;2024-03-22T09:15:23;7.28;;;5.97;;
18425;SDS011;9340;48.756;9.226;2024-03-22T09:17:51;6.20;;;5.50;;
18425;SDS011;9340;48.756;9.226;2024-03-22T09:20:18;6.30;;;5.25;;
18425;SDS011;9340;48.756;9.226;2024-03-22T09:22:44;6.45;;;5.15;;
18425;SDS011;9340;48.756;9.226;2024-03-22T09:25:11;5.68;;;5.18;;
18425;SDS011;9340;48.756;9.226;2024-03-22T09:27:37;6.40;;;5.38;;
18425;SDS011;9340;48.756;9.226;2024-03-22T09:30:04;5.43;;;5.03;;
18425;SDS011;9340;48.756;9.226;2024-03-22T09:32:32;5.75;;;4.97;;
18425;SDS011;9340;48.756;9.226;2024-03-22T09:34:58;5.13;;;4.72;;
18425;SDS011;9340;48.756;9.226;2024-03-22T09:37:24;6.45;;;5.85;;
18425;SDS011;9340;48.756;9.226;2024-03-22T09:39:51;10.57;;;8.57;;
18425;SDS011;9340;48.756;9.226;2024-03-22T09:42:17;11.48;;;10.32;;
18425;SDS011;9340;48.756;9.226;2024-03-22T09:44:44;9.88;;;9.07;;
18425;SDS011;9340;48.756;9.226;2024-03-22T09:47:13;10.05;;;8.88;;
18425;SDS011;9340;48.756;9.226;2024-03-22T09:49:42;12.23;;;11.13;;
18425;SDS011;9340;48.756;9.226;2024-03-22T09:52:11;10.05;;;9.10;;
18425;SDS011;9340;48.756;9.226;2024-03-22T09:54:39;11.35;;;9.70;;
18425;SDS011;9340;48.756;9.226;2024-03-22T09:57:07;11.45;;;10.15;;
18425;SDS011;9340;48.756;9.226;2024-03-22T09:59:37;10.23;;;9.32;;
18425;SDS011;9340;48.756;9.226;2024-03-22T10:02:04;10.43;;;9.45;;
18425;SDS011;9340;48.756;9.226;2024-03-22T10:04:30;9.57;;;8.77;;
18425;SDS011;9340;48.756;9.226;2024-03-22T10:06:57;10.98;;;8.88;;
18425;SDS011;9340;48.756;9.226;2024-03-22T10:09:28;10.85;;;9.38;;
18425;SDS011;9340;48.756;9.226;2024-03-22T10:11:55;10.20;;;8.90;;
18425;SDS011;9340;48.756;9.226;2024-03-22T10:14:21;11.65;;;9.10;;
18425;SDS011;9340;48.756;9.226;2024-03-22T10:16:50;9.02;;;8.13;;
18425;SDS011;9340;48.756;9.226;2024-03-22T10:19:18;7.65;;;6.70;;
18425;SDS011;9340;48.756;9.226;2024-03-22T10:21:44;9.50;;;7.40;;
18425;SDS011;9340;48.756;9.226;2024-03-22T10:24:12;8.70;;;7.80;;
18425;SDS011;9340;48.756;9.226;2024-03-22T10:26:38;9.75;;;8.63;;
18425;SDS011;9340;48.756;9.226;2024-03-22T10:29:05;8.10;;;7.30;;
18425;SDS011;9340;48.756;9.226;2024-03-22T10:31:31;10.52;;;8.55;;
18425;SDS011;9340;48.756;9.226;2024-03-22T10:34:00;8.43;;;7.40;;
18425;SDS011;9340;48.756;9.226;2024-03-22T10:36:29;8.48;;;6.80;;
18425;SDS011;9340;48.756;9.226;2024-03-22T10:38:56;7.75;;;6.90;;
18425;SDS011;9340;48.756;9.226;2024-03-22T10:41:24;7.78;;;6.97;;
18425;SDS011;9340;48.756;9.226;2024-03-22T10:43:51;6.90;;;6.30;;
18425;SDS011;9340;48.756;9.226;2024-03-22T10:46:17;6.97;;;6.28;;
18425;SDS011;9340;48.756;9.226;2024-03-22T10:48:46;7.40;;;6.70;;
18425;SDS011;9340;48.756;9.226;2024-03-22T10:51:12;7.68;;;6.28;;
18425;SDS011;9340;48.756;9.226;2024-03-22T10:53:41;6.13;;;5.50;;
18425;SDS011;9340;48.756;9.226;2024-03-22T10:56:07;7.10;;;5.68;;
18425;SDS011;9340;48.756;9.226;2024-03-22T10:58:40;5.78;;;4.88;;
18425;SDS011;9340;48.756;9.226;2024-03-22T11:01:06;7.57;;;5.60;;
18425;SDS011;9340;48.756;9.226;2024-03-22T11:03:47;7.38;;;5.50;;
18425;SDS011;9340;48.756;9.226;2024-03-22T11:06:12;5.30;;;4.80;;
18425;SDS011;9340;48.756;9.226;2024-03-22T11:08:39;5.45;;;4.72;;
18425;SDS011;9340;48.756;9.226;2024-03-22T11:11:09;6.53;;;5.13;;
18425;SDS011;9340;48.756;9.226;2024-03-22T11:13:36;6.70;;;4.75;;
18425;SDS011;9340;48.756;9.226;2024-03-22T11:16:06;4.72;;;4.22;;
18425;SDS011;9340;48.756;9.226;2024-03-22T11:18:35;6.28;;;4.85;;
18425;SDS011;9340;48.756;9.226;2024-03-22T11:21:01;5.88;;;4.82;;
18425;SDS011;9340;48.756;9.226;2024-03-22T11:23:28;8.05;;;6.38;;
18425;SDS011;9340;48.756;9.226;2024-03-22T11:25:54;5.30;;;4.57;;
18425;SDS011;9340;48.756;9.226;2024-03-22T11:28:23;5.38;;;4.35;;
18425;SDS011;9340;48.756;9.226;2024-03-22T11:30:48;5.80;;;4.43;;
18425;SDS011;9340;48.756;9.226;2024-03-22T11:33:16;5.25;;;4.75;;
18425;SDS011;9340;48.756;9.226;2024-03-22T11:35:42;6.22;;;5.10;;
18425;SDS011;9340;48.756;9.226;2024-03-22T11:38:10;5.85;;;5.20;;
18425;SDS011;9340;48.756;9.226;2024-03-22T11:40:36;6.38;;;4.43;;
18425;SDS011;9340;48.756;9.226;2024-03-22T11:43:03;5.03;;;4.53;;
18425;SDS011;9340;48.756;9.226;2024-03-22T11:45:30;4.43;;;4.05;;
18425;SDS011;9340;48.756;9.226;2024-03-22T11:48:01;4.75;;;4.25;;
18425;SDS011;9340;48.756;9.226;2024-03-22T11:50:28;4.07;;;3.67;;
18425;SDS011;9340;48.756;9.226;2024-03-22T11:52:55;5.78;;;4.47;;
18425;SDS011;9340;48.756;9.226;2024-03-22T11:55:21;4.50;;;4.07;;
18425;SDS011;9340;48.756;9.226;2024-03-22T11:57:48;4.93;;;4.30;;
18425;SDS011;9340;48.756;9.226;2024-03-22T12:00:14;6.95;;;5.95;;
18425;SDS011;9340;48.756;9.226;2024-03-22T12:02:43;6.75;;;5.15;;
18425;SDS011;9340;48.756;9.226;2024-03-22T12:05:09;5.28;;;4.78;;
18425;SDS011;9340;48.756;9.226;2024-03-22T12:07:37;6.68;;;5.38;;
18425;SDS011;9340;48.756;9.226;2024-03-22T12:10:05;5.80;;;5.25;;
18425;SDS011;9340;48.756;9.226;2024-03-22T12:12:32;6.60;;;5.88;;
18425;SDS011;9340;48.756;9.226;2024-03-22T12:14:58;6.70;;;5.15;;
18425;SDS011;9340;48.756;9.226;2024-03-22T12:17:25;5.82;;;4.75;;
18425;SDS011;9340;48.756;9.226;2024-03-22T12:19:50;6.95;;;4.65;;
18425;SDS011;9340;48.756;9.226;2024-03-22T12:22:17;8.45;;;5.07;;
18425;SDS011;9340;48.756;9.226;2024-03-22T12:24:45;6.20;;;5.28;;
18425;SDS011;9340;48.756;9.226;2024-03-22T12:27:11;5.35;;;4.78;;
18425;SDS011;9340;48.756;9.226;2024-03-22T12:29:37;11.68;;;10.60;;
18425;SDS011;9340;48.756;9.226;2024-03-22T12:32:04;8.85;;;5.22;;
18425;SDS011;9340;48.756;9.226;2024-03-22T12:34:31;5.57;;;4.95;;
18425;SDS011;9340;48.756;9.226;2024-03-22T12:36:58;6.07;;;5.40;;
18425;SDS011;9340;48.756;9.226;2024-03-22T12:39:24;5.88;;;5.28;;
18425;SDS011;9340;48.756;9.226;2024-03-22T12:41:52;5.40;;;4.85;;
18425;SDS011;9340;48.756;9.226;2024-03-22T12:44:18;7.32;;;6.43;;
18425;SDS011;9340;48.756;9.226;2024-03-22T12:46:45;10.25;;;5.43;;
18425;SDS011;9340;48.756;9.226;2024-03-22T12:49:11;6.75;;;5.55;;
18425;SDS011;9340;48.756;9.226;2024-03-22T12:51:38;5.22;;;4.72;;
18425;SDS011;9340;48.756;9.226;2024-03-22T12:54:04;6.45;;;4.82;;
18425;SDS011;9340;48.756;9.226;2024-03-22T12:56:31;7.40;;;6.22;;
18425;SDS011;9340;48.756;9.226;2024-03-22T12:58:58;4.40;;;4.00;;
18425;SDS011;9340;48.756;9.226;2024-03-22T13:01:25;4.00;;;3.35;;
18425;SDS011;9340;48.756;9.226;2024-03-22T13:03:51;6.35;;;4.22;;
18425;SDS011;9340;48.756;9.226;2024-03-22T13:06:18;4.05;;;3.67;;
18425;SDS011;9340;48.756;9.226;2024-03-22T13:08:44;4.00;;;3.58;;
18425;SDS011;9340;48.756;9.226;2024-03-22T13:11:11;4.88;;;3.47;;
18425;SDS011;9340;48.756;9.226;2024-03-22T13:13:38;3.38;;;2.65;;
18425;SDS011;9340;48.756;9.226;2024-03-22T13:16:06;3.17;;;2.83;;
18425;SDS011;9340;48.756;9.226;2024-03-22T13:18:34;3.80;;;2.90;;
18425;SDS011;9340;48.756;9.226;2024-03-22T13:21:01;3.25;;;2.97;;
18425;SDS011;9340;48.756;9.226;2024-03-22T13:23:28;3.97;;;3.58;;
18425;SDS011;9340;48.756;9.226;2024-03-22T13:25:54;4.88;;;4.20;;
18425;SDS011;9340;48.756;9.226;2024-03-22T13:28:21;5.43;;;3.90;;
18425;SDS011;9340;48.756;9.226;2024-03-22T13:30:47;4.63;;;4.22;;
18425;SDS011;9340;48.756;9.226;2024-03-22T13:33:15;5.85;;;5.25;;
18425;SDS011;9340;48.756;9.226;2024-03-22T13:35:44;4.47;;;4.07;;
18425;SDS011;9340;48.756;9.226;2024-03-22T13:38:10;5.97;;;4.20;;
18425;SDS011;9340;48.756;9.226;2024-03-22T13:40:38;5.72;;;5.00;;
18425;SDS011;9340;48.756;9.226;2024-03-22T13:43:05;5.78;;;4.68;;
18425;SDS011;9340;48.756;9.226;2024-03-22T13:45:32;4.30;;;3.90;;
18425;SDS011;9340;48.756;9.226;2024-03-22T13:47:58;4.93;;;3.72;;
18425;SDS011;9340;48.756;9.226;2024-03-22T13:50:26;4.45;;;3.70;;
18425;SDS011;9340;48.756;9.226;2024-03-22T13:52:51;4.47;;;3.80;;
18425;SDS011;9340;48.756;9.226;2024-03-22T13:55:18;4.03;;;3.67;;
18425;SDS011;9340;48.756;9.226;2024-03-22T13:57:44;4.05;;;3.53;;
18425;SDS011;9340;48.756;9.226;2024-03-22T14:00:11;4.00;;;3.60;;
18425;SDS011;9340;48.756;9.226;2024-03-22T14:02:39;4.03;;;3.72;;
18425;SDS011;9340;48.756;9.226;2024-03-22T14:05:06;5.88;;;3.88;;
18425;SDS011;9340;48.756;9.226;2024-03-22T14:07:34;4.20;;;3.60;;
18425;SDS011;9340;48.756;9.226;2024-03-22T14:10:05;5.97;;;4.93;;
18425;SDS011;9340;48.756;9.226;2024-03-22T14:12:31;6.40;;;4.28;;
18425;SDS011;9340;48.756;9.226;2024-03-22T14:14:58;4.75;;;4.18;;
18425;SDS011;9340;48.756;9.226;2024-03-22T14:17:24;4.45;;;4.05;;
18425;SDS011;9340;48.756;9.226;2024-03-22T14:19:50;5.28;;;4.45;;
18425;SDS011;9340;48.756;9.226;2024-03-22T14:22:17;6.38;;;4.60;;
18425;SDS011;9340;48.756;9.226;2024-03-22T14:24:45;4.88;;;4.13;;
18425;SDS011;9340;48.756;9.226;2024-03-22T14:27:11;5.47;;;4.70;;
18425;SDS011;9340;48.756;9.226;2024-03-22T14:29:38;5.00;;;4.45;;
18425;SDS011;9340;48.756;9.226;2024-03-22T14:32:04;8.18;;;4.57;;
18425;SDS011;9340;48.756;9.226;2024-03-22T14:34:32;5.28;;;4.78;;
18425;SDS011;9340;48.756;9.226;2024-03-22T14:36:58;6.13;;;4.65;;
18425;SDS011;9340;48.756;9.226;2024-03-22T14:39:24;5.07;;;4.68;;
18425;SDS011;9340;48.756;9.226;2024-03-22T14:41:51;5.50;;;4.07;;